createdAt,value
2023-02-11T00:00:55.839Z,105.40
2023-02-11T00:01:55.917Z,108.17
2023-02-11T00:02:56.014Z,107.67
2023-02-11T00:03:56.007Z,110.50
2023-02-11T00:04:56.050Z,109.43
2023-02-11T00:05:56.090Z,109.88
2023-02-11T00:06:56.177Z,106.17
2023-02-11T00:07:56.208Z,108.24
2023-02-11T00:08:56.306Z,106.81
2023-02-11T00:09:56.336Z,108.19
2023-02-11T00:10:56.393Z,108.17
2023-02-11T00:11:56.444Z,108.67
2023-02-11T00:12:56.485Z,106.55
2023-02-11T00:13:56.554Z,110.33
2023-02-11T00:14:56.608Z,109.46
2023-02-11T00:15:56.640Z,108.97
2023-02-11T00:16:56.864Z,106.93
2023-02-11T00:17:56.753Z,107.46
2023-02-11T00:18:57.775Z,107.18
2023-02-11T00:19:56.852Z,106.56
2023-02-11T00:20:56.936Z,108.38
2023-02-11T00:21:57.021Z,106.77
2023-02-11T00:22:57.028Z,105.58
2023-02-11T00:23:57.100Z,108.33
2023-02-11T00:24:57.184Z,109.87
2023-02-11T00:25:57.206Z,110.62
2023-02-11T00:26:57.291Z,107.44
2023-02-11T00:27:57.347Z,107.20
2023-02-11T00:28:57.389Z,106.35
2023-02-11T00:29:57.455Z,106.74
2023-02-11T00:30:57.599Z,107.47
2023-02-11T00:31:57.584Z,107.52
2023-02-11T00:32:57.614Z,109.10
2023-02-11T00:33:57.634Z,110.21
2023-02-11T00:34:57.671Z,105.17
2023-02-11T00:35:57.751Z,106.51
2023-02-11T00:36:57.836Z,106.70
2023-02-11T00:37:57.830Z,105.68
2023-02-11T00:38:57.983Z,106.30
2023-02-11T00:39:58.067Z,105.14
2023-02-11T00:40:58.019Z,107.41
2023-02-11T00:41:58.103Z,105.97
2023-02-11T00:42:58.137Z,105.97
2023-02-11T00:43:58.193Z,107.26
2023-02-11T00:44:58.225Z,106.21
2023-02-11T00:45:58.362Z,106.20
2023-02-11T00:46:58.341Z,103.84
2023-02-11T00:47:58.416Z,104.14
2023-02-11T00:48:58.464Z,105.64
2023-02-11T00:49:58.539Z,106.21
2023-02-11T00:50:58.598Z,107.96
2023-02-11T00:51:58.608Z,106.35
2023-02-11T00:52:58.684Z,107.88
2023-02-11T00:53:58.743Z,108.77
2023-02-11T00:54:58.784Z,106.69
2023-02-11T00:55:58.885Z,105.91
2023-02-11T00:56:58.944Z,105.00
2023-02-11T00:57:58.955Z,103.95
2023-02-11T00:58:59.014Z,105.89
2023-02-11T00:59:59.067Z,106.89
2023-02-11T01:00:59.165Z,103.14
2023-02-11T01:01:59.151Z,105.19
2023-02-11T01:02:59.242Z,104.06
2023-02-11T01:03:59.264Z,104.84
2023-02-11T01:04:59.371Z,107.97
2023-02-11T01:05:59.389Z,106.29
2023-02-11T01:06:59.443Z,105.84
2023-02-11T01:07:59.490Z,104.29
2023-02-11T01:08:59.553Z,106.73
2023-02-11T01:09:59.618Z,103.49
2023-02-11T01:10:59.667Z,104.57
2023-02-11T01:11:59.754Z,103.96
2023-02-11T01:12:59.803Z,106.30
2023-02-11T01:13:59.827Z,105.48
2023-02-11T01:14:59.906Z,103.24
2023-02-11T01:16:00.050Z,105.83
2023-02-11T01:17:00.020Z,105.82
2023-02-11T01:18:00.041Z,104.29
2023-02-11T01:19:00.116Z,103.18
2023-02-11T01:20:00.147Z,105.85
2023-02-11T01:21:00.227Z,102.63
2023-02-11T01:22:00.237Z,104.01
2023-02-11T01:23:00.288Z,104.65
2023-02-11T01:24:00.343Z,103.68
2023-02-11T01:25:00.369Z,104.96
2023-02-11T01:26:00.456Z,103.07
2023-02-11T01:27:00.519Z,103.06
2023-02-11T01:28:00.608Z,103.20
2023-02-11T01:29:00.624Z,103.01
2023-02-11T01:30:00.691Z,103.28
2023-02-11T01:31:00.765Z,102.14
2023-02-11T01:32:00.822Z,102.53
2023-02-11T01:33:00.839Z,104.32
2023-02-11T01:34:00.866Z,103.87
2023-02-11T01:35:00.925Z,101.07
2023-02-11T01:36:00.980Z,103.43
2023-02-11T01:37:01.015Z,102.96
2023-02-11T01:38:01.061Z,102.20
2023-02-11T01:39:01.129Z,103.71
2023-02-11T01:40:01.220Z,104.54
2023-02-11T01:41:01.543Z,103.90
2023-02-11T01:42:01.284Z,105.08
2023-02-11T01:43:01.362Z,103.11
2023-02-11T01:44:01.393Z,103.19
2023-02-11T01:45:01.441Z,104.38
2023-02-11T01:46:01.602Z,103.21
2023-02-11T01:47:01.557Z,104.56
2023-02-11T01:48:01.638Z,103.65
2023-02-11T01:49:01.828Z,103.76
2023-02-11T01:50:01.692Z,103.01
2023-02-11T01:51:01.708Z,103.15
2023-02-11T01:52:01.779Z,105.20
2023-02-11T01:53:01.843Z,101.64
2023-02-11T01:54:01.902Z,102.71
2023-02-11T01:55:01.935Z,102.71
2023-02-11T01:56:02.001Z,102.16
2023-02-11T01:57:02.035Z,103.49
2023-02-11T01:58:02.786Z,100.84
2023-02-11T01:59:02.150Z,100.75
2023-02-11T02:00:02.207Z,100.87
2023-02-11T02:01:02.266Z,99.85
2023-02-11T02:02:02.340Z,99.22
2023-02-11T02:03:02.388Z,102.08
2023-02-11T02:04:02.490Z,102.49
2023-02-11T02:05:02.485Z,100.34
2023-02-11T02:06:02.528Z,96.98
2023-02-11T02:07:02.600Z,100.55
2023-02-11T02:08:02.619Z,101.25
2023-02-11T02:09:02.701Z,99.18
2023-02-11T02:10:02.733Z,100.69
2023-02-11T02:11:02.818Z,102.98
2023-02-11T02:12:02.867Z,101.75
2023-02-11T02:13:02.902Z,100.57
2023-02-11T02:14:02.948Z,99.26
2023-02-11T02:15:03.050Z,98.37
2023-02-11T02:16:03.146Z,100.49
2023-02-11T02:17:03.149Z,100.40
2023-02-11T02:18:03.203Z,99.11
2023-02-11T02:19:03.287Z,99.73
2023-02-11T02:20:03.308Z,98.70
2023-02-11T02:21:03.325Z,101.17
2023-02-11T02:22:03.401Z,99.20
2023-02-11T02:23:03.439Z,97.66
2023-02-11T02:34:03.995Z,100.50
2023-02-11T03:17:06.124Z,99.02
2023-02-11T03:18:06.184Z,95.63
2023-02-11T03:19:06.202Z,98.60
2023-02-11T03:20:06.275Z,100.38
2023-02-11T03:21:06.338Z,101.88
2023-02-11T03:22:06.372Z,99.05
2023-02-11T03:23:06.420Z,96.36
2023-02-11T03:24:06.473Z,96.30
2023-02-11T03:25:06.553Z,101.55
2023-02-11T03:26:06.601Z,99.44
2023-02-11T03:27:06.649Z,99.38
2023-02-11T03:28:06.746Z,101.30
2023-02-11T03:29:06.766Z,98.45
2023-02-11T03:30:06.853Z,99.22
2023-02-11T03:31:07.058Z,100.12
2023-02-11T03:32:06.969Z,100.42
2023-02-11T03:33:06.972Z,98.86
2023-02-11T03:34:07.054Z,98.60
2023-02-11T03:35:07.094Z,97.08
2023-02-11T03:36:07.169Z,97.88
2023-02-11T03:37:07.247Z,96.55
2023-02-11T03:38:07.243Z,95.63
2023-02-11T03:39:07.308Z,99.00
2023-02-11T03:40:07.438Z,97.35
2023-02-11T03:41:07.413Z,97.97
2023-02-11T03:42:07.455Z,98.95
2023-02-11T03:43:07.542Z,95.47
2023-02-11T03:44:07.597Z,94.81
2023-02-11T03:45:07.656Z,98.10
2023-02-11T03:46:07.730Z,93.52
2023-02-11T03:47:07.741Z,95.55
2023-02-11T03:48:07.817Z,98.78
2023-02-11T03:49:07.898Z,98.48
2023-02-11T03:50:07.936Z,97.63
2023-02-11T03:51:08.003Z,97.93
2023-02-11T03:52:08.013Z,97.61
2023-02-11T03:53:08.083Z,97.45
2023-02-11T03:54:08.168Z,98.89
2023-02-11T03:55:08.226Z,101.70
2023-02-11T04:08:09.008Z,94.91
2023-02-11T04:09:09.098Z,95.49
2023-02-11T04:10:09.150Z,96.45
2023-02-11T04:11:09.199Z,96.16
2023-02-11T04:12:09.264Z,97.82
2023-02-11T04:13:09.329Z,96.50
2023-02-11T04:14:09.383Z,95.91
2023-02-11T04:15:09.437Z,95.82
2023-02-11T04:16:09.604Z,95.40
2023-02-11T04:17:09.567Z,96.11
2023-02-11T04:18:09.612Z,95.76
2023-02-11T04:19:09.683Z,95.43
2023-02-11T04:20:09.741Z,96.23
2023-02-11T04:21:09.810Z,97.73
2023-02-11T04:22:09.882Z,95.22
2023-02-11T04:23:09.914Z,95.75
2023-02-11T04:24:09.968Z,92.82
2023-02-11T04:25:10.024Z,95.39
2023-02-11T04:26:10.114Z,94.02
2023-02-11T04:28:10.253Z,93.95
2023-02-11T04:29:10.271Z,93.36
2023-02-11T04:30:10.351Z,94.90
2023-02-11T04:31:10.399Z,95.26
2023-02-11T04:32:10.468Z,95.00
2023-02-11T04:33:10.496Z,93.10
2023-02-11T04:34:10.570Z,95.87
2023-02-11T04:35:10.606Z,94.49
2023-02-11T04:36:10.667Z,96.37
2023-02-11T04:37:10.756Z,93.70
2023-02-11T04:38:10.794Z,93.42
2023-02-11T04:39:10.847Z,94.50
2023-02-11T04:41:10.970Z,95.00
2023-02-11T04:42:10.950Z,95.98
2023-02-11T04:43:11.027Z,95.01
2023-02-11T04:44:11.085Z,94.53
2023-02-11T04:45:11.149Z,95.87
2023-02-11T04:47:11.242Z,91.94
2023-02-11T04:49:11.365Z,90.59
2023-02-11T04:50:11.425Z,94.36
2023-02-11T04:51:11.519Z,93.12
2023-02-11T04:52:11.555Z,92.77
2023-02-11T04:53:11.606Z,90.53
2023-02-11T04:54:11.689Z,92.58
2023-02-11T04:55:11.737Z,95.47
2023-02-11T04:56:11.800Z,93.04
2023-02-11T04:57:11.850Z,92.69
2023-02-11T04:58:11.905Z,94.53
2023-02-11T04:59:11.948Z,95.40
2023-02-11T05:00:12.041Z,93.86
2023-02-11T05:01:12.131Z,92.82
2023-02-11T05:02:12.110Z,93.42
2023-02-11T05:03:12.194Z,88.36
2023-02-11T05:04:12.285Z,91.29
2023-02-11T05:05:12.311Z,91.90
2023-02-11T05:06:12.340Z,90.13
2023-02-11T05:07:12.380Z,90.12
2023-02-11T05:08:12.450Z,90.68
2023-02-11T05:09:12.529Z,91.68
2023-02-11T05:10:12.605Z,92.89
2023-02-11T05:11:12.646Z,92.16
2023-02-11T05:12:12.698Z,91.67
2023-02-11T05:13:12.772Z,94.52
2023-02-11T05:14:12.794Z,93.46
2023-02-11T05:15:12.878Z,92.60
2023-02-11T05:16:12.958Z,89.65
2023-02-11T05:17:12.950Z,93.13
2023-02-11T05:18:13.047Z,90.64
2023-02-11T05:30:13.688Z,90.60
2023-02-11T05:46:14.661Z,90.82
2023-02-11T05:47:14.654Z,89.47
2023-02-11T05:48:14.677Z,87.46
2023-02-11T05:50:14.842Z,88.70
2023-02-11T05:51:14.907Z,89.17
2023-02-11T05:52:14.967Z,92.04
2023-02-11T05:54:15.085Z,91.91
2023-02-11T05:55:15.141Z,90.10
2023-02-11T05:56:15.212Z,91.35
2023-02-11T05:57:15.248Z,91.98
2023-02-11T05:58:15.292Z,86.25
2023-02-11T05:59:15.363Z,89.74
2023-02-11T06:00:15.469Z,88.27
2023-02-11T06:02:15.624Z,89.74
2023-02-11T06:03:15.671Z,89.19
2023-02-11T06:07:15.856Z,87.43
2023-02-11T06:08:15.911Z,88.62
2023-02-11T06:09:15.985Z,88.07
2023-02-11T06:11:16.053Z,86.18
2023-02-11T06:12:16.136Z,89.88
2023-02-11T06:13:16.171Z,89.37
2023-02-11T06:14:16.229Z,87.88
2023-02-11T06:15:16.278Z,87.89
2023-02-11T06:16:16.444Z,87.14
2023-02-11T06:17:16.370Z,89.18
2023-02-11T06:18:16.415Z,91.42
2023-02-11T06:19:16.478Z,86.75
2023-02-11T06:20:16.525Z,85.67
2023-02-11T06:21:16.602Z,85.13
2023-02-11T06:22:16.669Z,88.16
2023-02-11T06:23:16.683Z,90.12
2023-02-11T06:24:24.694Z,85.74
2023-02-11T06:25:17.759Z,85.96
2023-02-11T06:26:16.805Z,86.36
2023-02-11T06:27:16.770Z,86.71
2023-02-11T06:28:16.895Z,87.32
2023-02-11T06:29:16.817Z,89.14
2023-02-11T06:30:16.799Z,86.24
2023-02-11T06:31:16.868Z,87.58
2023-02-11T06:32:39.597Z,89.80
2023-02-11T06:33:17.812Z,89.89
2023-02-11T06:34:16.827Z,90.07
2023-02-11T06:35:16.847Z,89.67
2023-02-11T06:36:16.824Z,86.26
2023-02-11T06:37:16.855Z,89.11
2023-02-11T06:38:16.866Z,87.89
2023-02-11T06:39:16.833Z,89.77
2023-02-11T06:40:16.911Z,89.75
2023-02-11T06:41:16.877Z,88.03
2023-02-11T06:42:16.875Z,89.30
2023-02-11T06:43:16.927Z,89.69
2023-02-11T06:44:16.989Z,91.43
2023-02-11T06:45:17.028Z,90.59
2023-02-11T06:46:17.140Z,90.32
2023-02-11T06:47:17.169Z,85.00
2023-02-11T06:48:17.260Z,84.49
2023-02-11T06:49:17.268Z,89.80
2023-02-11T06:50:17.345Z,86.43
2023-02-11T06:51:17.433Z,88.20
2023-02-11T06:52:17.457Z,86.57
2023-02-11T06:53:17.478Z,86.59
2023-02-11T06:54:17.563Z,84.24
2023-02-11T06:55:17.667Z,87.90
2023-02-11T06:56:17.718Z,87.47
2023-02-11T06:57:17.785Z,85.66
2023-02-11T06:58:17.828Z,85.31
2023-02-11T06:59:17.903Z,86.30
2023-02-11T07:00:17.942Z,86.82
2023-02-11T07:01:18.016Z,84.95
2023-02-11T07:02:20.688Z,86.69
2023-02-11T07:03:18.149Z,86.88
2023-02-11T07:04:18.087Z,86.75
2023-02-11T07:05:18.084Z,86.46
2023-02-11T07:06:18.089Z,86.60
2023-02-11T07:07:18.072Z,85.92
2023-02-11T07:08:18.128Z,83.85
2023-02-11T07:09:18.110Z,86.45
2023-02-11T07:10:18.186Z,85.44
2023-02-11T07:11:18.176Z,89.35
2023-02-11T07:12:18.147Z,86.64
2023-02-11T07:13:18.147Z,85.20
2023-02-11T07:14:18.208Z,85.58
2023-02-11T07:15:18.196Z,89.54
2023-02-11T07:16:18.332Z,85.09
2023-02-11T07:17:18.218Z,84.64
2023-02-11T07:18:18.236Z,82.67
2023-02-11T07:19:18.250Z,86.30
2023-02-11T07:20:18.272Z,85.05
2023-02-11T07:21:18.298Z,87.86
2023-02-11T07:22:18.278Z,85.91
2023-02-11T07:23:18.272Z,86.10
2023-02-11T07:24:18.291Z,85.09
2023-02-11T07:25:18.311Z,89.51
2023-02-11T07:26:18.303Z,84.71
2023-02-11T07:27:18.342Z,85.02
2023-02-11T07:28:18.371Z,84.57
2023-02-11T07:29:18.331Z,84.52
2023-02-11T07:30:18.343Z,84.43
2023-02-11T07:31:18.475Z,85.68
2023-02-11T07:32:18.435Z,84.52
2023-02-11T07:33:18.361Z,84.13
2023-02-11T07:34:18.366Z,83.58
2023-02-11T07:35:18.395Z,83.70
2023-02-11T07:36:18.380Z,83.30
2023-02-11T07:37:18.373Z,82.39
2023-02-11T07:38:18.373Z,83.18
2023-02-11T07:39:18.359Z,84.93
2023-02-11T07:40:18.409Z,82.09
2023-02-11T07:41:18.425Z,86.50
2023-02-11T07:42:18.441Z,81.42
2023-02-11T07:43:18.422Z,82.26
2023-02-11T07:44:18.435Z,80.49
2023-02-11T07:45:18.453Z,82.86
2023-02-11T07:46:18.476Z,81.51
2023-02-11T07:47:18.469Z,84.12
2023-02-11T07:48:18.475Z,85.64
2023-02-11T07:49:18.483Z,82.16
2023-02-11T07:50:18.566Z,81.93
2023-02-11T07:51:18.596Z,83.09
2023-02-11T07:52:18.620Z,84.29
2023-02-11T07:53:18.714Z,81.64
2023-02-11T07:54:18.755Z,82.08
2023-02-11T07:55:18.840Z,84.31
2023-02-11T07:56:18.910Z,82.31
2023-02-11T07:57:18.962Z,82.00
2023-02-11T07:58:19.030Z,81.76
2023-02-11T07:59:19.076Z,84.08
2023-02-11T08:00:21.113Z,84.34
2023-02-11T08:01:19.236Z,83.80
2023-02-11T08:02:19.234Z,83.36
2023-02-11T08:03:19.297Z,83.67
2023-02-11T08:04:19.363Z,78.74
2023-02-11T08:05:19.447Z,83.71
2023-02-11T08:06:19.468Z,82.61
2023-02-11T08:07:19.515Z,79.83
2023-02-11T08:08:19.577Z,81.95
2023-02-11T08:09:19.634Z,80.69
2023-02-11T08:10:19.695Z,78.22
2023-02-11T08:11:19.789Z,81.67
2023-02-11T08:12:19.871Z,83.14
2023-02-11T08:13:19.893Z,80.33
2023-02-11T08:14:19.969Z,82.86
2023-02-11T08:15:20.066Z,86.17
2023-02-11T08:16:20.170Z,79.30
2023-02-11T08:17:20.160Z,80.71
2023-02-11T08:18:20.215Z,84.41
2023-02-11T08:19:20.293Z,81.24
2023-02-11T08:20:20.356Z,82.37
2023-02-11T08:21:20.424Z,81.98
2023-02-11T08:22:20.525Z,79.60
2023-02-11T08:23:20.529Z,81.74
2023-02-11T08:24:20.561Z,81.50
2023-02-11T08:25:20.674Z,79.30
2023-02-11T08:26:20.742Z,81.63
2023-02-11T08:27:20.761Z,78.65
2023-02-11T08:28:20.886Z,77.20
2023-02-11T08:29:20.911Z,80.49
2023-02-11T08:30:20.969Z,79.23
2023-02-11T08:31:21.147Z,81.19
2023-02-11T08:32:21.204Z,79.10
2023-02-11T08:33:21.140Z,77.11
2023-02-11T08:34:21.222Z,77.66
2023-02-11T08:35:21.280Z,78.92
2023-02-11T08:36:21.315Z,76.04
2023-02-11T08:37:21.387Z,79.78
2023-02-11T08:38:21.458Z,76.60
2023-02-11T08:39:21.517Z,80.39
2023-02-11T08:40:21.561Z,80.21
2023-02-11T08:41:21.612Z,80.50
2023-02-11T08:42:21.660Z,82.65
2023-02-11T08:43:21.751Z,78.28
2023-02-11T08:44:21.834Z,80.29
2023-02-11T08:45:21.847Z,78.82
2023-02-11T08:46:21.983Z,78.95
2023-02-11T08:47:22.006Z,82.03
2023-02-11T08:48:22.051Z,79.01
2023-02-11T08:49:22.165Z,81.21
2023-02-11T08:50:22.165Z,81.28
2023-02-11T08:51:22.249Z,82.50
2023-02-11T08:52:22.294Z,77.88
2023-02-11T08:53:22.332Z,80.02
2023-02-11T08:54:22.412Z,77.13
2023-02-11T08:55:22.435Z,78.87
2023-02-11T08:56:22.526Z,77.43
2023-02-11T08:57:22.594Z,77.67
2023-02-11T08:58:22.650Z,80.41
2023-02-11T08:59:22.709Z,78.18
2023-02-11T09:00:22.778Z,79.78
2023-02-11T09:01:23.166Z,79.77
2023-02-11T09:02:23.030Z,80.75
2023-02-11T09:03:22.963Z,78.75
2023-02-11T09:04:23.043Z,80.30
2023-02-11T09:05:23.091Z,78.88
2023-02-11T09:06:23.171Z,75.94
2023-02-11T09:07:23.223Z,80.01
2023-02-11T09:08:23.296Z,75.92
2023-02-11T09:09:23.321Z,79.18
2023-02-11T09:10:23.465Z,78.11
2023-02-11T09:11:23.446Z,78.11
2023-02-11T09:12:23.516Z,77.10
2023-02-11T09:13:23.582Z,77.75
2023-02-11T09:14:23.683Z,76.44
2023-02-11T09:15:23.697Z,77.40
2023-02-11T09:16:23.822Z,72.89
2023-02-11T09:17:23.840Z,76.32
2023-02-11T09:18:23.877Z,77.89
2023-02-11T09:19:23.981Z,75.97
2023-02-11T09:20:23.996Z,76.22
2023-02-11T09:21:24.017Z,76.34
2023-02-11T09:22:24.089Z,76.95
2023-02-11T09:23:24.204Z,78.68
2023-02-11T09:24:24.272Z,75.43
2023-02-11T09:25:24.266Z,76.38
2023-02-11T09:26:24.314Z,75.76
2023-02-11T09:27:24.392Z,76.48
2023-02-11T09:28:24.451Z,76.38
2023-02-11T09:29:24.490Z,77.35
2023-02-11T09:30:24.550Z,74.48
2023-02-11T09:31:24.796Z,79.74
2023-02-11T09:32:24.669Z,76.96
2023-02-11T09:33:24.738Z,78.08
2023-02-11T09:34:24.783Z,75.23
2023-02-11T09:35:24.866Z,73.84
2023-02-11T09:36:24.935Z,74.70
2023-02-11T09:37:24.969Z,74.26
2023-02-11T09:38:24.985Z,76.14
2023-02-11T09:39:25.084Z,75.91
2023-02-11T09:40:25.138Z,77.18
2023-02-11T09:41:25.209Z,73.70
2023-02-11T09:42:25.250Z,74.47
2023-02-11T09:43:25.290Z,78.58
2023-02-11T09:44:25.368Z,75.53
2023-02-11T09:45:25.426Z,73.36
2023-02-11T09:46:25.548Z,71.58
2023-02-11T09:47:25.612Z,74.98
2023-02-11T09:48:25.679Z,76.63
2023-02-11T09:49:25.676Z,74.09
2023-02-11T09:50:25.698Z,73.92
2023-02-11T09:51:25.744Z,72.69
2023-02-11T09:52:25.859Z,75.00
2023-02-11T09:53:25.901Z,74.10
2023-02-11T09:54:25.923Z,76.32
2023-02-11T09:55:26.004Z,74.27
2023-02-11T09:56:26.050Z,69.62
2023-02-11T09:57:28.928Z,72.07
2023-02-11T09:58:26.139Z,75.07
2023-02-11T09:59:26.140Z,74.75
2023-02-11T10:00:26.152Z,73.87
2023-02-11T10:01:26.247Z,71.44
2023-02-11T10:02:26.151Z,73.51
2023-02-11T10:03:26.170Z,73.50
2023-02-11T10:04:26.280Z,74.01
2023-02-11T10:05:26.199Z,72.03
2023-02-11T10:06:26.192Z,74.95
2023-02-11T10:07:26.244Z,71.05
2023-02-11T10:08:26.253Z,72.75
2023-02-11T10:09:26.270Z,70.20
2023-02-11T10:10:26.273Z,72.94
2023-02-11T10:11:31.827Z,72.85
2023-02-11T10:12:27.266Z,73.13
2023-02-11T10:13:26.291Z,73.65
2023-02-11T10:14:26.301Z,74.15
2023-02-11T10:15:26.425Z,73.53
2023-02-11T10:16:26.315Z,77.40
2023-02-11T10:17:26.306Z,74.82
2023-02-11T10:18:26.310Z,73.33
2023-02-11T10:19:26.324Z,73.11
2023-02-11T10:20:26.387Z,69.35
2023-02-11T10:21:26.335Z,71.78
2023-02-11T10:22:26.368Z,70.94
2023-02-11T10:23:26.393Z,69.36
2023-02-11T10:24:26.456Z,68.13
2023-02-11T10:25:26.604Z,71.59
2023-02-11T10:26:26.571Z,69.55
2023-02-11T10:27:26.671Z,69.57
2023-02-11T10:28:26.728Z,73.27
2023-02-11T10:29:26.767Z,68.55
2023-02-11T10:30:26.897Z,72.43
2023-02-11T10:31:26.988Z,71.92
2023-02-11T10:32:26.973Z,67.89
2023-02-11T10:33:27.032Z,69.35
2023-02-11T10:34:27.151Z,71.45
2023-02-11T10:35:27.188Z,70.01
2023-02-11T10:36:27.231Z,72.51
2023-02-11T10:37:27.318Z,68.38
2023-02-11T10:38:27.344Z,69.49
2023-02-11T10:39:27.420Z,70.01
2023-02-11T10:40:27.497Z,72.03
2023-02-11T10:41:27.571Z,69.22
2023-02-11T10:42:27.598Z,68.08
2023-02-11T10:43:27.668Z,67.96
2023-02-11T10:44:27.730Z,67.88
2023-02-11T10:45:27.793Z,72.12
2023-02-11T10:46:27.906Z,65.95
2023-02-11T10:47:27.890Z,67.28
2023-02-11T10:48:27.908Z,68.51
2023-02-11T10:49:28.014Z,69.77
2023-02-11T10:50:28.040Z,70.84
2023-02-11T10:51:28.189Z,72.62
2023-02-11T10:55:28.348Z,67.60
2023-02-11T10:56:28.389Z,65.48
2023-02-11T10:57:28.487Z,68.34
2023-02-11T10:58:28.543Z,65.10
2023-02-11T10:59:28.576Z,67.96
2023-02-11T11:00:28.644Z,67.37
2023-02-11T11:01:28.732Z,68.32
2023-02-11T11:02:28.768Z,67.07
2023-02-11T11:03:28.824Z,65.48
2023-02-11T11:04:28.854Z,68.75
2023-02-11T11:05:28.915Z,65.78
2023-02-11T11:06:29.011Z,67.69
2023-02-11T11:07:29.062Z,70.50
2023-02-11T11:08:29.116Z,68.68
2023-02-11T11:09:29.157Z,68.63
2023-02-11T11:10:29.229Z,68.74
2023-02-11T11:11:29.258Z,65.76
2023-02-11T11:12:29.347Z,67.05
2023-02-11T11:13:29.356Z,64.38
2023-02-11T11:14:29.429Z,67.85
2023-02-11T11:15:29.508Z,67.21
2023-02-11T11:16:29.649Z,69.13
2023-02-11T11:17:29.645Z,68.07
2023-02-11T11:18:29.708Z,68.06
2023-02-11T11:19:29.709Z,67.48
2023-02-11T11:20:29.814Z,64.29
2023-02-11T11:21:29.829Z,66.35
2023-02-11T11:22:29.930Z,67.34
2023-02-11T11:23:29.947Z,67.55
2023-02-11T11:24:30.006Z,65.47
2023-02-11T11:25:30.078Z,64.70
2023-02-11T11:26:30.172Z,68.72
2023-02-11T11:27:30.238Z,66.19
2023-02-11T11:28:30.327Z,67.90
2023-02-11T11:29:30.320Z,65.45
2023-02-11T11:30:30.493Z,70.41
2023-02-11T11:31:30.591Z,67.87
2023-02-11T11:32:30.500Z,67.76
2023-02-11T11:33:30.576Z,66.13
2023-02-11T11:34:30.624Z,65.90
2023-02-11T11:35:30.693Z,65.96
2023-02-11T11:36:30.732Z,66.44
2023-02-11T11:37:30.849Z,61.69
2023-02-11T11:38:30.877Z,66.61
2023-02-11T11:39:30.940Z,65.43
2023-02-11T11:40:31.018Z,65.30
2023-02-11T11:41:31.084Z,64.22
2023-02-11T11:42:31.129Z,62.50
2023-02-11T11:43:31.187Z,65.10
2023-02-11T11:44:31.243Z,62.62
2023-02-11T11:45:31.282Z,67.71
2023-02-11T11:46:31.424Z,66.85
2023-02-11T11:47:31.424Z,65.44
2023-02-11T11:48:31.480Z,62.16
2023-02-11T11:49:31.546Z,65.94
2023-02-11T11:53:31.789Z,63.96
2023-02-11T11:54:31.853Z,66.07
2023-02-11T11:55:31.892Z,64.79
2023-02-11T11:56:31.941Z,64.69
2023-02-11T11:57:32.011Z,66.61
2023-02-11T11:58:32.054Z,61.49
2023-02-11T11:59:32.121Z,63.84
2023-02-11T12:00:32.177Z,64.60
2023-02-11T12:01:32.283Z,64.23
2023-02-11T12:03:32.390Z,67.49
2023-02-11T12:04:32.464Z,62.76
2023-02-11T12:05:33.029Z,64.50
2023-02-11T12:06:32.545Z,62.69
2023-02-11T12:07:32.608Z,63.73
2023-02-11T12:08:32.655Z,61.20
2023-02-11T12:09:32.733Z,64.74
2023-02-11T12:11:32.827Z,59.08
2023-02-11T12:12:32.912Z,61.24
2023-02-11T12:14:33.000Z,61.28
2023-02-11T12:15:33.058Z,65.17
2023-02-11T12:16:33.260Z,60.27
2023-02-11T12:17:33.212Z,62.84
2023-02-11T12:18:33.231Z,64.18
2023-02-11T12:19:33.293Z,61.07
2023-02-11T12:20:33.368Z,63.76
2023-02-11T12:21:33.425Z,61.80
2023-02-11T12:22:33.512Z,59.57
2023-02-11T12:23:33.541Z,61.28
2023-02-11T12:24:33.617Z,63.56
2023-02-11T12:25:33.647Z,62.43
2023-02-11T12:26:33.736Z,63.33
2023-02-11T12:27:33.789Z,61.92
2023-02-11T12:28:33.904Z,64.34
2023-02-11T12:29:33.895Z,62.09
2023-02-11T12:30:34.012Z,61.27
2023-02-11T13:05:36.110Z,63.43
2023-02-11T13:06:36.203Z,60.11
2023-02-11T13:07:36.264Z,58.77
2023-02-11T13:08:36.289Z,54.87
2023-02-11T13:09:36.324Z,60.52
2023-02-11T13:10:36.424Z,60.27
2023-02-11T16:04:46.083Z,58.53
2023-02-11T16:05:46.140Z,61.19
2023-02-11T16:06:46.168Z,59.18
2023-02-11T16:07:46.217Z,60.76
2023-02-11T16:08:46.262Z,60.33
2023-02-11T16:09:46.284Z,61.65
2023-02-11T16:10:46.335Z,57.50
2023-02-11T16:11:46.373Z,61.46
2023-02-11T16:12:46.459Z,63.08
2023-02-11T16:13:46.528Z,63.15
2023-02-11T16:14:47.073Z,60.88
2023-02-11T16:15:46.680Z,64.75
2023-02-11T16:16:46.638Z,64.19
2023-02-11T16:17:46.747Z,61.02
2023-02-11T16:18:52.155Z,57.86
2023-02-11T16:19:47.796Z,58.06
2023-02-11T16:20:46.813Z,58.50
2023-02-11T16:21:46.794Z,59.25
2023-02-11T16:22:46.831Z,61.20
2023-02-11T16:23:46.833Z,61.25
2023-02-11T16:24:46.840Z,60.30
2023-02-11T16:25:46.804Z,59.01
2023-02-11T16:26:46.820Z,60.17
2023-02-11T16:27:46.876Z,60.28
2023-02-11T16:28:46.875Z,59.47
2023-02-11T16:29:46.856Z,63.57
2023-02-11T16:30:46.910Z,58.12
2023-02-11T16:31:46.967Z,59.62
2023-02-11T16:32:46.928Z,59.02
2023-02-11T16:33:46.970Z,61.90
2023-02-11T16:34:47.011Z,61.32
2023-02-11T16:35:47.079Z,58.92
2023-02-11T16:36:47.094Z,60.79
2023-02-11T16:37:47.103Z,59.97
2023-02-11T16:38:47.150Z,60.78
2023-02-11T16:39:47.182Z,63.19
2023-02-11T16:40:47.185Z,59.98
2023-02-11T16:41:47.239Z,62.14
2023-02-11T16:42:47.348Z,62.72
2023-02-11T16:43:47.316Z,60.90
2023-02-11T16:44:47.348Z,61.62
2023-02-11T16:45:47.389Z,59.43
2023-02-11T16:46:47.470Z,55.85
2023-02-11T16:47:47.477Z,59.82
2023-02-11T16:48:47.480Z,61.72
2023-02-11T16:49:47.579Z,62.92
2023-02-11T16:50:47.567Z,62.90
2023-02-11T16:51:47.594Z,63.08
2023-02-11T16:52:47.643Z,60.92
2023-02-11T16:53:47.723Z,63.37
2023-02-11T16:54:47.739Z,65.93
2023-02-11T16:55:47.766Z,62.90
2023-02-11T16:56:47.840Z,61.92
2023-02-11T16:57:47.862Z,64.85
2023-02-11T16:58:47.892Z,61.31
2023-02-11T16:59:47.925Z,64.32
2023-02-11T17:00:48.012Z,63.07
2023-02-11T17:01:48.017Z,62.58
2023-02-11T17:02:48.055Z,65.29
2023-02-11T17:03:48.022Z,62.33
2023-02-11T17:04:48.150Z,61.73
2023-02-11T17:05:55.420Z,63.58
2023-02-11T17:06:49.174Z,63.66
2023-02-11T17:07:48.153Z,63.49
2023-02-11T17:08:48.164Z,62.99
2023-02-11T17:09:48.156Z,64.60
2023-02-11T17:10:48.189Z,65.24
2023-02-11T17:11:48.179Z,63.47
2023-02-11T17:12:48.258Z,65.27
2023-02-11T17:13:48.186Z,67.73
2023-02-11T17:14:48.205Z,67.00
2023-02-11T17:15:48.206Z,69.50
2023-02-11T17:16:48.270Z,66.71
2023-02-11T17:17:48.221Z,63.77
2023-02-11T17:18:48.240Z,66.73
2023-02-11T17:19:48.243Z,66.59
2023-02-11T17:20:48.251Z,64.98
2023-02-11T17:21:48.291Z,66.57
2023-02-11T17:22:48.310Z,66.08
2023-02-11T17:23:48.366Z,64.74
2023-02-11T17:24:48.423Z,65.18
2023-02-11T17:25:48.447Z,65.50
2023-02-11T17:26:48.456Z,65.68
2023-02-11T17:27:50.647Z,64.55
2023-02-11T17:28:48.561Z,71.32
2023-02-11T17:29:48.558Z,62.88
2023-02-11T17:30:48.618Z,68.36
2023-02-11T17:31:48.613Z,68.31
2023-02-11T17:32:48.630Z,66.57
2023-02-11T17:33:48.636Z,69.21
2023-02-11T17:34:48.649Z,68.43
2023-02-11T17:35:48.714Z,66.19
2023-02-11T17:36:48.684Z,66.42
2023-02-11T17:37:48.715Z,69.00
2023-02-11T17:38:48.733Z,68.01
2023-02-11T17:39:48.733Z,66.46
2023-02-11T17:40:48.733Z,68.01
2023-02-11T17:41:48.749Z,66.61
2023-02-11T17:42:48.814Z,66.52
2023-02-11T17:43:48.805Z,69.29
2023-02-11T17:44:48.828Z,65.89
2023-02-11T17:45:49.047Z,64.06
2023-02-11T17:46:48.802Z,67.31
2023-02-11T17:47:48.854Z,67.61
2023-02-11T17:48:48.846Z,68.02
2023-02-11T17:49:48.871Z,68.10
2023-02-11T17:50:49.839Z,69.42
2023-02-11T17:51:48.909Z,70.04
2023-02-11T17:52:48.871Z,68.97
2023-02-11T17:53:48.911Z,70.96
2023-02-11T17:54:48.922Z,68.44
2023-02-11T17:55:49.353Z,67.14
2023-02-11T17:56:50.446Z,66.97
2023-02-11T17:57:49.040Z,65.57
2023-02-11T17:58:48.979Z,70.92
2023-02-11T17:59:48.999Z,69.34
2023-02-11T18:00:49.064Z,69.24
2023-02-11T18:01:49.039Z,64.97
2023-02-11T18:02:49.044Z,67.53
2023-02-11T18:03:49.074Z,67.54
2023-02-11T18:04:49.066Z,66.44
2023-02-11T18:05:49.266Z,70.72
2023-02-11T18:06:49.106Z,70.39